Airfield :
LOGIN :

Register | Disclaimer

   EN    FR    IT 

 










Legend :    VFR   Marginal VFR   IFR   Intensive IFR   Very Intensive IFR
Visi :
Ceiling :
>= 8 km
>= 3000ft
5 to 8 km
1000 to 3000 ft
1500m to 5 km
500 to 1000 ft
800 to 1500m
200 to 500 ft
< 800m
< 200 ft
Symbols :   Thunderstorms  Fog  Heavy snow  Heavy precipitations  Wind > 20 kt
SIGMETs :     Misc.  Thunderstorms  Icing  Turbulence  Mountain Waves  Volcanic Ashes






- Airport Elevation : 1197 ft
- IATA code : SPM


ETAD - Spangdahlem Ab

CURRENT METAR :
  • 252055Z AUTO 00000KT 9999 CLR 08/06 A2989 RMK AO2 SLP115 T00810061 58002

EXPIRED METARs :
  • 251955Z 00000KT 9999 CLR 09/05 A2990 RMK AO2A SLP119 T00930051 $
  • 251855Z 00000KT 9999 SCT065 10/05 A2990 RMK AO2A SLP117 T01030053 $

TAF TAF ETAD
Valid from the 25 at 20:00 until the 27 at 02:00 UTC


252000Z 2520/2702 VRB03KT 9999 FEW030 QNH2990INS
BECMG 2522/2523 VRB03KT 8000 BR FEW020 QNH2986INS
BECMG 2600/2601 VRB03KT 5000 BR FEW020 QNH2982INS
TEMPO 2601/2603 3200 BR BKN015
BECMG 2603/2604 22004KT 3200 BR BKN010 QNH2977INS
TEMPO 2604/2606 2400 BR BKN008
BECMG 2606/2607 21009KT 5000 BR BKN008 QNH2972INS
TEMPO 2607/2609 8000 BR BKN012
BECMG 2610/2611 23012G18KT 8000 -SHRA BKN018 640409 651305 QNH2967INS
BECMG 2612/2613 21015G25KT 6000 -RA BKN020 650409 651305 QNH2962INS
TEMPO 2613/2616 3200 -RA BKN018
BECMG 2616/2617 22015G20KT 5000 -RA BKN018 650409 651305 QNH2951INS
TEMPO 2617/2619 3200 RA BKN014
BECMG 2619/2620 27010G15KT 5000 -RA BKN009 650409 651305 QNH2945INS TX10/2613Z TN06/2604Z



MET'MAP, your aeronautical weather chart ! - Copyright ORBIFLY December 2007 - Disclaimer

ORBIFLY MET'MAP TEAM :

Programming & Development : Alexandra Zaïnal
Original concept : Baudouin d'Aumeries
Technical & hardware support : Manuel Goepfert
Assistance : Marc-Olivier Méhu




SOURCES & CREDITS :

   NOAA